Не устанавливается обновление 1809 на 1803 (FX8320E/ASRockFX990/GeForce10603Gb) — как исправить?

Здравствуйте, не удаётся обновить Windows до версии 1809.

Обновление успешно загружается, при первой перезагрузке появляется черный экран с крутящимся бубликом, через некоторое время просто чёрный экран, и далее ничего.

В логе:

2018.12.14 19:40:26.4599065 5144  7364  Agent           Initializing Windows Update Agent

2018.12.14 19:40:26.4602250 5144  7364  Agent           CPersistentTimeoutScheduler | GetTimer, returned hr = 0x00000000

2018.12.14 19:40:26.4652999 5144  7364  Agent           Attempt 2 to obtain post-reboot results for event with cookie {ProductName»:»Client.OS.RS2.amd64″

2018.12.14 19:40:26.4654782 5144  7364  Handler         Enter GetPostRebootResult for Deployment handler. Reporting cookie data:  {ProductName»:»Client.OS.RS2.amd64″

2018.12.14 19:40:26.4677728 5144  7364  Handler         Reporting cookie data: Product name Client.OS.RS2.amd64 Sandbox path C:WindowsSoftwareDistributionDownload15115cdb32462fcf63389564ca200ea0 Update Agent name UpdateAgent.dll Build version 10.0.17763.194

2018.12.14 19:40:26.4682888 5144  7364  Handler         Sandbox folder C:WindowsSoftwareDistributionDownload15115cdb32462fcf63389564ca200ea0 exists

2018.12.14 19:40:26.4686172 5144  7364  Handler         Using the inbox service stack dll file ‘C:Windowssystem32UpdateAgent.dll’ 

2018.12.14 19:40:32.4291511 5144  7364  Handler         Update status code is 0xC1900101

2018.12.14 19:40:32.4291540 5144  7364  Handler         Failed to install the update

2018.12.14 19:40:32.4311677 5144  7364  Handler         Leave GetPostRebootResult for Deployment handler

2018.12.14 19:40:32.9779567 5144  7364  Reporter        OS Product Type = 0x00000030

2018.12.14 19:40:33.0201820 5144  7364  IdleTimer       WU operation (CDiscoveryCall::Init ID 1) started; operation # 3; does use network; is not at background priority

2018.12.14 19:40:33.0204600 5320  7976  ComApi          *QUEUED* SLS Discovery

2018.12.14 19:40:33.0288128 5144  12176 DownloadManager Received power state change notification: Old: <unknown>; New: AC.

2018.12.14 19:40:33.0288657 5144  12176 DownloadManager Power state changed from <unknown> to AC.

2018.12.14 19:40:33.0549560 5144  12188 IdleTimer       WU operation (CDiscoveryCall::Init ID 1, operation # 3) stopped; does use network; is not at background priority

2018.12.14 19:40:33.0685941 5320  10836 ComApi          *RESUMED* Discovery

2018.12.14 19:40:33.0689658 5320  10836 Api             * END *   Discovery ClientId

2018.12.14 19:40:33.0984730 5320  7976  ComApi          * START *   SLS Discovery

2018.12.14 19:40:33.0998652 5144  7364  IdleTimer       WU operation (CDiscoveryCall::Init ID 2) started; operation # 8; does use network; is not at background priority

2018.12.14 19:40:33.1000441 5320  7976  ComApi          *QUEUED* SLS Discovery

2018.12.14 19:40:33.1302117 5144  12188 IdleTimer       WU operation (CDiscoveryCall::Init ID 2, operation # 8) stopped; does use network; is not at background priority

2018.12.14 19:40:33.1310625 5320  10836 ComApi          *RESUMED* Discovery

2018.12.14 19:40:33.1314136 5320  10836 Api             * END *   Discovery ClientId

2018.12.14 19:42:41.5545696 5144  5424  Shared          UpdateNetworkState Ipv6, cNetworkInterfaces = 5.

2018.12.14 19:43:17.0412348 2876  3416  ComApi          * START *   SLS Discovery

2018.12.14 19:43:17.0439290 5144  16264 IdleTimer       WU operation (CDiscoveryCall::Init ID 3) started; operation # 20; does use network; is not at background priority

2018.12.14 19:43:17.0441278 2876  3416  ComApi          *QUEUED* SLS Discovery

2018.12.14 19:43:17.0807788 5144  12188 IdleTimer       WU operation (CDiscoveryCall::Init ID 3, operation # 20) stopped; does use network; is not at background priority

2018.12.14 19:43:17.0837539 2876  4292  ComApi          *RESUMED* Discovery

2018.12.14 19:43:17.0839880 2876  4292  Api             * END *   Discovery ClientId

2018.12.14 19:43:17.0920919 2876  3416  ComApi          *FAILED* [80070490] Method failed [CSLSClientProxy::GetSLSDataChunk:254]

2018.12.14 19:43:17.0965579 2876  3416  ComApi          * START *   SLS Discovery

2018.12.14 19:43:17.0978150 5144  16264 IdleTimer       WU operation (CDiscoveryCall::Init ID 4) started; operation # 25; does use network; is not at background priority

2018.12.14 19:43:17.0979301 2876  3416  ComApi          *QUEUED* SLS Discovery

2018.12.14 19:43:17.1308341 5144  12188 IdleTimer       WU operation (CDiscoveryCall::Init ID 4, operation # 25) stopped; does use network; is not at background priority

2018.12.14 19:43:17.1317587 2876  4292  ComApi          *RESUMED* Discovery

2018.12.14 19:43:17.1320409 2876  4292  Api             * END *   Discovery ClientId

Добрый день.
Попробуйте удалить папку C:$WINDOWS.~BT(если она есть), остановить службу обновлений, очистить содержимое папки c:WindowsSoftwareDistribution, и повторить поиск обновлений.

Источник: https://answers.microsoft.com/ru-ru/windows/forum/all/не/69fdf854-17d5-4c29-88d7-985358ba7579

Добавить комментарий

Adblock
detector